createdAt,value
2023-04-03T00:00:50.668Z,5.00
2023-04-03T00:01:50.700Z,4.97
2023-04-03T00:02:50.792Z,4.94
2023-04-03T00:03:50.727Z,4.92
2023-04-03T00:04:50.619Z,4.89
2023-04-03T00:05:50.591Z,4.89
2023-04-03T00:06:50.579Z,4.90
2023-04-03T00:07:50.568Z,4.94
2023-04-03T00:08:50.663Z,4.97
2023-04-03T00:09:50.535Z,4.98
2023-04-03T00:10:50.542Z,5.01
2023-04-03T00:11:50.509Z,5.05
2023-04-03T00:12:50.514Z,5.07
2023-04-03T00:13:50.515Z,5.08
2023-04-03T00:14:50.480Z,5.13
2023-04-03T00:15:50.455Z,5.13
2023-04-03T00:16:50.486Z,5.12
2023-04-03T00:17:50.455Z,5.10
2023-04-03T00:18:50.439Z,5.12
2023-04-03T00:19:50.393Z,5.12
2023-04-03T00:20:50.393Z,5.13
2023-04-03T00:21:50.379Z,5.15
2023-04-03T00:22:50.375Z,5.18
2023-04-03T00:23:50.366Z,5.16
2023-04-03T00:24:50.338Z,5.19
2023-04-03T00:25:50.311Z,5.22
2023-04-03T00:26:50.307Z,5.23
2023-04-03T00:27:50.296Z,5.23
2023-04-03T00:28:50.298Z,5.26
2023-04-03T00:29:50.266Z,5.31
2023-04-03T00:30:50.300Z,5.29
2023-04-03T00:31:50.243Z,5.31
2023-04-03T00:32:50.269Z,5.34
2023-04-03T00:33:50.233Z,5.34
2023-04-03T00:34:50.206Z,5.36
2023-04-03T00:35:50.302Z,5.36
2023-04-03T00:36:50.287Z,5.38
2023-04-03T00:37:50.164Z,5.37
2023-04-03T00:38:50.164Z,5.38
2023-04-03T00:39:50.135Z,5.40
2023-04-03T00:40:50.115Z,5.41
2023-04-03T00:41:50.102Z,5.41
2023-04-03T00:42:50.097Z,5.43
2023-04-03T00:43:50.106Z,5.41
2023-04-03T00:44:50.067Z,5.43
2023-04-03T00:45:50.100Z,5.44
2023-04-03T00:46:50.044Z,5.47
2023-04-03T00:47:50.068Z,5.47
2023-04-03T00:48:50.060Z,5.46
2023-04-03T00:49:50.005Z,5.46
2023-04-03T00:50:49.976Z,5.44
2023-04-03T00:51:49.975Z,5.44
2023-04-03T00:52:50.214Z,5.44
2023-04-03T00:53:50.773Z,5.43
2023-04-03T00:54:49.944Z,5.44
2023-04-03T00:55:50.107Z,5.43
2023-04-03T00:56:49.913Z,5.44
2023-04-03T00:57:49.894Z,5.43
2023-04-03T00:58:49.927Z,5.43
2023-04-03T00:59:49.859Z,5.44
2023-04-03T01:00:49.864Z,5.49
2023-04-03T01:02:10.857Z,5.52
2023-04-03T01:02:49.915Z,5.55
2023-04-03T01:03:49.857Z,5.56
2023-04-03T01:04:49.809Z,5.58
2023-04-03T01:05:49.788Z,5.58
2023-04-03T01:06:49.780Z,5.59
2023-04-03T01:07:49.768Z,5.59
2023-04-03T01:08:49.772Z,5.59
2023-04-03T01:09:49.746Z,5.58
2023-04-03T01:10:49.720Z,5.61
2023-04-03T01:11:49.716Z,5.61
2023-04-03T01:12:49.711Z,5.62
2023-04-03T01:13:49.708Z,5.65
2023-04-03T01:14:49.679Z,5.67
2023-04-03T01:15:49.697Z,5.67
2023-04-03T01:16:49.651Z,5.64
2023-04-03T01:17:49.677Z,5.65
2023-04-03T01:18:49.623Z,5.65
2023-04-03T01:19:49.616Z,5.67
2023-04-03T01:20:49.595Z,5.69
2023-04-03T01:21:49.583Z,5.72
2023-04-03T01:22:49.570Z,5.70
2023-04-03T01:23:49.552Z,5.72
2023-04-03T01:24:49.563Z,5.73
2023-04-03T01:25:49.545Z,5.72
2023-04-03T01:26:49.519Z,5.73
2023-04-03T01:27:49.498Z,5.74
2023-04-03T01:28:49.490Z,5.76
2023-04-03T01:29:49.486Z,5.74
2023-04-03T01:30:49.466Z,5.74
2023-04-03T01:31:49.490Z,5.73
2023-04-03T01:32:49.480Z,5.74
2023-04-03T01:33:49.421Z,5.72
2023-04-03T01:34:49.432Z,5.72
2023-04-03T01:35:49.416Z,5.73
2023-04-03T01:36:49.381Z,5.72
2023-04-03T01:37:49.371Z,5.70
2023-04-03T01:38:49.353Z,5.70
2023-04-03T01:39:49.361Z,5.72
2023-04-03T01:40:49.320Z,5.72
2023-04-03T01:41:49.314Z,5.70
2023-04-03T01:42:49.337Z,5.69
2023-04-03T01:43:49.302Z,5.70
2023-04-03T01:44:49.301Z,5.72
2023-04-03T01:45:49.278Z,5.70
2023-04-03T01:46:49.240Z,5.67
2023-04-03T01:47:49.268Z,5.69
2023-04-03T01:48:49.220Z,5.69
2023-04-03T01:49:49.220Z,5.69
2023-04-03T01:50:49.201Z,5.67
2023-04-03T01:51:49.189Z,5.67
2023-04-03T01:52:49.164Z,5.67
2023-04-03T01:53:49.150Z,5.67
2023-04-03T01:54:49.164Z,5.64
2023-04-03T01:55:49.138Z,5.69
2023-04-03T01:56:49.110Z,5.67
2023-04-03T01:57:49.101Z,5.69
2023-04-03T01:58:49.089Z,5.69
2023-04-03T01:59:49.078Z,5.69
2023-04-03T02:00:49.091Z,5.69
2023-04-03T02:01:49.058Z,5.67
2023-04-03T02:02:49.066Z,5.69
2023-04-03T02:03:49.046Z,5.67
2023-04-03T02:04:49.035Z,5.65
2023-04-03T02:05:48.990Z,5.65
2023-04-03T02:06:48.983Z,5.65
2023-04-03T02:07:48.958Z,5.64
2023-04-03T02:08:48.955Z,5.61
2023-04-03T02:09:48.940Z,5.59
2023-04-03T02:10:48.936Z,5.59
2023-04-03T02:11:48.913Z,5.59
2023-04-03T02:12:48.902Z,5.61
2023-04-03T02:13:48.880Z,5.61
2023-04-03T02:14:48.874Z,5.59
2023-04-03T02:15:48.861Z,5.61
2023-04-03T02:16:48.889Z,5.61
2023-04-03T02:17:48.901Z,5.59
2023-04-03T02:18:48.821Z,5.59
2023-04-03T02:19:48.799Z,5.56
2023-04-03T02:20:48.833Z,5.55
2023-04-03T02:21:48.779Z,5.56
2023-04-03T02:22:48.775Z,5.55
2023-04-03T02:23:48.749Z,5.55
2023-04-03T02:24:48.740Z,5.55
2023-04-03T02:25:48.745Z,5.54
2023-04-03T02:26:48.715Z,5.51
2023-04-03T02:27:48.692Z,5.54
2023-04-03T02:28:48.705Z,5.56
2023-04-03T02:29:48.663Z,5.58
2023-04-03T02:30:48.748Z,5.56
2023-04-03T02:31:48.633Z,5.56
2023-04-03T02:32:48.660Z,5.54
2023-04-03T02:33:48.603Z,5.52
2023-04-03T02:34:48.606Z,5.52
2023-04-03T02:35:48.615Z,5.46
2023-04-03T02:36:48.573Z,5.46
2023-04-03T02:37:48.562Z,5.43
2023-04-03T02:38:48.548Z,5.40
2023-04-03T02:39:48.526Z,5.38
2023-04-03T02:40:48.546Z,5.38
2023-04-03T02:41:48.518Z,5.36
2023-04-03T02:42:48.505Z,5.34
2023-04-03T02:43:48.473Z,5.33
2023-04-03T02:44:48.465Z,5.34
2023-04-03T02:45:48.485Z,5.33
2023-04-03T02:46:48.435Z,5.28
2023-04-03T02:47:48.477Z,5.28
2023-04-03T02:48:48.423Z,5.28
2023-04-03T02:49:48.393Z,5.26
2023-04-03T02:50:48.414Z,5.23
2023-04-03T02:51:48.370Z,5.25
2023-04-03T02:52:48.359Z,5.19
2023-04-03T02:53:48.342Z,5.16
2023-04-03T02:54:48.347Z,5.16
2023-04-03T02:55:48.338Z,5.16
2023-04-03T02:56:48.316Z,5.15
2023-04-03T02:57:48.296Z,5.15
2023-04-03T02:58:48.295Z,5.15
2023-04-03T02:59:48.268Z,5.13
2023-04-03T03:00:48.282Z,5.15
2023-04-03T03:01:48.295Z,5.15
2023-04-03T03:02:48.297Z,5.12
2023-04-03T03:03:48.220Z,5.10
2023-04-03T03:04:48.238Z,5.07
2023-04-03T03:05:48.221Z,5.07
2023-04-03T03:06:48.185Z,5.07
2023-04-03T03:07:48.156Z,5.07
2023-04-03T03:08:48.151Z,5.04
2023-04-03T03:09:48.138Z,5.08
2023-04-03T03:10:48.146Z,5.05
2023-04-03T03:11:48.111Z,5.02
2023-04-03T03:12:48.103Z,5.01
2023-04-03T03:13:48.081Z,5.01
2023-04-03T03:14:48.070Z,4.97
2023-04-03T03:15:48.100Z,4.95
2023-04-03T03:16:48.043Z,4.92
2023-04-03T03:17:48.100Z,4.92
2023-04-03T03:18:48.028Z,4.92
2023-04-03T03:19:47.997Z,4.89
2023-04-03T03:20:48.022Z,4.87
2023-04-03T03:21:47.974Z,4.86
2023-04-03T03:22:47.972Z,4.86
2023-04-03T03:23:47.945Z,4.84
2023-04-03T03:24:47.934Z,4.86
2023-04-03T03:25:47.933Z,4.83
2023-04-03T03:26:47.910Z,4.82
2023-04-03T03:27:47.912Z,4.79
2023-04-03T03:28:47.883Z,4.76
2023-04-03T03:29:47.869Z,4.78
2023-04-03T03:30:47.873Z,4.78
2023-04-03T03:31:47.915Z,4.78
2023-04-03T03:32:47.878Z,4.78
2023-04-03T03:33:47.810Z,4.78
2023-04-03T03:34:47.803Z,4.78
2023-04-03T03:35:47.792Z,4.78
2023-04-03T03:36:47.801Z,4.75
2023-04-03T03:37:47.754Z,4.71
2023-04-03T03:38:47.753Z,4.75
2023-04-03T03:39:47.726Z,4.74
2023-04-03T03:40:47.722Z,4.68
2023-04-03T03:41:47.721Z,4.68
2023-04-03T03:42:47.697Z,4.71
2023-04-03T03:43:47.678Z,4.67
2023-04-03T03:44:47.672Z,4.66
2023-04-03T03:45:47.646Z,4.64
2023-04-03T03:46:47.694Z,4.64
2023-04-03T03:47:47.658Z,4.63
2023-04-03T03:48:47.617Z,4.60
2023-04-03T03:49:47.597Z,4.58
2023-04-03T03:50:47.596Z,4.57
2023-04-03T03:51:47.583Z,4.58
2023-04-03T03:52:47.557Z,4.58
2023-04-03T03:53:47.546Z,4.57
2023-04-03T03:54:47.538Z,4.50
2023-04-03T03:55:47.518Z,4.49
2023-04-03T03:56:47.524Z,4.45
2023-04-03T03:57:47.483Z,4.42
2023-04-03T03:58:47.483Z,4.42
2023-04-03T03:59:47.591Z,4.43
2023-04-03T04:00:47.491Z,4.43
2023-04-03T04:01:47.463Z,4.42
2023-04-03T04:02:47.466Z,4.42
2023-04-03T04:03:47.504Z,4.40
2023-04-03T04:04:47.403Z,4.38
2023-04-03T04:05:47.391Z,4.36
2023-04-03T04:06:47.392Z,4.38
2023-04-03T04:07:47.369Z,4.39
2023-04-03T04:08:47.360Z,4.39
2023-04-03T04:09:47.340Z,4.38
2023-04-03T04:10:47.352Z,4.36
2023-04-03T04:11:47.333Z,4.32
2023-04-03T04:12:47.317Z,4.32
2023-04-03T04:13:47.308Z,4.34
2023-04-03T04:14:47.270Z,4.36
2023-04-03T04:15:47.250Z,4.36
2023-04-03T04:16:47.276Z,4.38
2023-04-03T04:17:47.393Z,4.38
2023-04-03T04:18:47.254Z,4.36
2023-04-03T04:19:47.194Z,4.34
2023-04-03T04:20:47.199Z,4.30
2023-04-03T04:21:47.185Z,4.30
2023-04-03T04:22:47.177Z,4.31
2023-04-03T04:23:47.143Z,4.31
2023-04-03T04:24:47.134Z,4.32
2023-04-03T04:25:47.127Z,4.31
2023-04-03T04:26:47.151Z,4.25
2023-04-03T04:27:47.110Z,4.25
2023-04-03T04:28:47.084Z,4.25
2023-04-03T04:29:47.071Z,4.22
2023-04-03T04:30:47.137Z,4.16
2023-04-03T04:31:47.049Z,4.16
2023-04-03T04:32:47.062Z,4.18
2023-04-03T04:33:47.016Z,4.20
2023-04-03T04:34:47.041Z,4.18
2023-04-03T04:35:47.069Z,4.16
2023-04-03T04:36:47.091Z,4.20
2023-04-03T04:37:46.954Z,4.21
2023-04-03T04:38:46.953Z,4.20
2023-04-03T04:39:46.936Z,4.14
2023-04-03T04:40:46.932Z,4.14
2023-04-03T04:41:46.923Z,4.12
2023-04-03T04:42:46.902Z,4.10
2023-04-03T04:43:46.876Z,4.07
2023-04-03T04:44:46.870Z,4.10
2023-04-03T04:45:46.880Z,4.06
2023-04-03T04:46:46.859Z,4.04
2023-04-03T04:47:46.871Z,4.04
2023-04-03T04:48:46.827Z,3.99
2023-04-03T04:49:46.796Z,3.96
2023-04-03T04:50:46.794Z,3.94
2023-04-03T04:51:52.018Z,3.92
2023-04-03T04:52:47.760Z,3.95
2023-04-03T04:53:46.750Z,3.94
2023-04-03T04:54:46.740Z,3.92
2023-04-03T04:55:46.720Z,3.88
2023-04-03T04:56:46.734Z,3.86
2023-04-03T04:57:46.690Z,3.84
2023-04-03T04:58:46.680Z,3.81
2023-04-03T04:59:46.668Z,3.81
2023-04-03T05:00:46.714Z,3.81
2023-04-03T05:01:46.701Z,3.85
2023-04-03T05:02:46.680Z,3.82
2023-04-03T05:03:46.618Z,3.78
2023-04-03T05:04:46.629Z,3.76
2023-04-03T05:05:46.593Z,3.74
2023-04-03T05:06:46.586Z,3.74
2023-04-03T05:07:46.568Z,3.76
2023-04-03T05:08:46.554Z,3.77
2023-04-03T05:09:46.556Z,3.76
2023-04-03T05:10:46.544Z,3.77
2023-04-03T05:11:46.533Z,3.78
2023-04-03T05:12:46.503Z,3.82
2023-04-03T05:13:46.487Z,3.81
2023-04-03T05:14:46.496Z,3.78
2023-04-03T05:15:46.502Z,3.74
2023-04-03T05:16:46.463Z,3.74
2023-04-03T05:17:46.471Z,3.74
2023-04-03T05:18:46.424Z,3.82
2023-04-03T05:19:46.411Z,4.07
2023-04-03T05:20:46.395Z,4.22
2023-04-03T05:21:46.411Z,4.52
2023-04-03T05:22:46.377Z,4.68
2023-04-03T05:23:46.350Z,4.84
2023-04-03T05:24:46.344Z,4.90
2023-04-03T05:25:46.324Z,4.98
2023-04-03T05:26:46.331Z,5.07
2023-04-03T05:27:46.303Z,5.05
2023-04-03T05:28:46.284Z,5.13
2023-04-03T05:29:46.375Z,5.31
2023-04-03T05:30:46.266Z,5.40
2023-04-03T05:31:46.324Z,5.51
2023-04-03T05:32:46.314Z,5.44
2023-04-03T05:33:46.201Z,5.41
2023-04-03T05:34:46.352Z,5.28
2023-04-03T05:35:46.301Z,5.01
2023-04-03T05:36:46.213Z,4.82
2023-04-03T05:37:46.190Z,4.68
2023-04-03T05:38:46.276Z,4.49
2023-04-03T05:39:46.140Z,4.34
2023-04-03T05:40:46.134Z,4.28
2023-04-03T05:41:46.127Z,4.22
2023-04-03T05:42:46.100Z,4.20
2023-04-03T05:43:46.091Z,4.12
2023-04-03T05:44:46.082Z,4.03
2023-04-03T05:45:46.951Z,3.99
2023-04-03T05:46:46.075Z,3.92
2023-04-03T05:47:46.040Z,3.92
2023-04-03T05:48:46.034Z,3.89
2023-04-03T05:49:46.014Z,3.89
2023-04-03T05:50:46.016Z,3.88
2023-04-03T05:51:45.997Z,3.89
2023-04-03T05:52:45.972Z,3.88
2023-04-03T05:53:45.962Z,3.82
2023-04-03T05:54:45.933Z,3.81
2023-04-03T05:55:45.934Z,3.85
2023-04-03T05:56:45.915Z,3.85
2023-04-03T05:57:45.926Z,3.85
2023-04-03T05:58:45.888Z,3.86
2023-04-03T05:59:45.901Z,3.88
2023-04-03T06:00:45.876Z,3.91
2023-04-03T06:01:45.846Z,3.91
2023-04-03T06:02:45.935Z,3.89
2023-04-03T06:03:45.994Z,3.88
2023-04-03T06:04:46.045Z,3.89
2023-04-03T06:05:45.798Z,3.89
2023-04-03T06:06:45.819Z,3.91
2023-04-03T06:07:45.802Z,3.89
2023-04-03T06:08:45.765Z,3.91
2023-04-03T06:09:45.750Z,3.91
2023-04-03T06:10:45.730Z,3.88
2023-04-03T06:11:45.717Z,3.94
2023-04-03T06:12:45.744Z,3.94
2023-04-03T06:13:45.739Z,3.95
2023-04-03T06:14:45.700Z,3.96
2023-04-03T06:15:45.665Z,4.00
2023-04-03T06:16:45.747Z,4.00
2023-04-03T06:17:45.689Z,3.95
2023-04-03T06:18:45.620Z,3.91
2023-04-03T06:19:45.617Z,3.94
2023-04-03T06:20:45.623Z,3.99
2023-04-03T06:21:45.740Z,3.94
2023-04-03T06:22:45.582Z,3.96
2023-04-03T06:23:45.562Z,4.00
2023-04-03T06:24:45.565Z,4.00
2023-04-03T06:25:45.538Z,3.99
2023-04-03T06:26:45.514Z,4.00
2023-04-03T06:27:45.556Z,4.03
2023-04-03T06:28:45.523Z,4.03
2023-04-03T06:29:45.478Z,4.04
2023-04-03T06:30:45.507Z,4.07
2023-04-03T06:31:45.447Z,4.10
2023-04-03T06:32:45.481Z,4.10
2023-04-03T06:33:45.458Z,4.12
2023-04-03T06:34:45.446Z,4.10
2023-04-03T06:35:45.410Z,4.10
2023-04-03T06:36:45.383Z,4.10
2023-04-03T06:37:45.385Z,4.13
2023-04-03T06:38:45.362Z,4.14
2023-04-03T06:39:45.346Z,4.18
2023-04-03T06:40:45.352Z,4.18
2023-04-03T06:41:45.329Z,4.16
2023-04-03T06:42:45.376Z,4.16
2023-04-03T06:43:45.301Z,4.20
2023-04-03T06:44:45.276Z,4.22
2023-04-03T06:45:45.476Z,4.24
2023-04-03T06:46:45.316Z,4.21
2023-04-03T06:47:45.297Z,4.20
2023-04-03T06:48:45.271Z,4.25
2023-04-03T06:49:45.231Z,4.24
2023-04-03T06:50:45.219Z,4.28
2023-04-03T06:51:45.205Z,4.30
2023-04-03T06:52:45.222Z,4.32
2023-04-03T06:53:45.188Z,4.36
2023-04-03T06:54:45.148Z,4.39
2023-04-03T06:55:45.181Z,4.43
2023-04-03T06:56:45.132Z,4.46
2023-04-03T06:57:45.142Z,4.49
2023-04-03T06:58:45.352Z,4.53
2023-04-03T06:59:45.106Z,4.56
2023-04-03T07:00:45.070Z,4.53
2023-04-03T07:01:45.089Z,4.49
2023-04-03T07:02:45.129Z,4.50
2023-04-03T07:03:45.027Z,4.49
2023-04-03T07:04:45.072Z,4.52
2023-04-03T07:05:45.036Z,4.53
2023-04-03T07:06:44.988Z,4.58
2023-04-03T07:07:45.000Z,4.64
2023-04-03T07:08:44.985Z,4.68
2023-04-03T07:09:45.357Z,4.66
2023-04-03T07:10:44.956Z,4.66
2023-04-03T07:11:44.928Z,4.64
2023-04-03T07:12:45.101Z,4.64
2023-04-03T07:13:44.941Z,4.66
2023-04-03T07:14:44.905Z,4.67
2023-04-03T07:15:44.870Z,4.67
2023-04-03T07:16:44.856Z,4.68
2023-04-03T07:17:44.879Z,4.68
2023-04-03T07:18:44.845Z,4.71
2023-04-03T07:19:44.824Z,4.79
2023-04-03T07:20:44.828Z,4.84
2023-04-03T07:21:44.786Z,4.84
2023-04-03T07:22:44.808Z,4.90
2023-04-03T07:23:44.830Z,4.97
2023-04-03T07:24:44.748Z,4.98
2023-04-03T07:25:44.740Z,5.02
2023-04-03T07:26:44.729Z,5.02
2023-04-03T07:27:44.754Z,5.04
2023-04-03T07:28:44.695Z,5.02
2023-04-03T07:29:44.699Z,5.05
2023-04-03T07:30:44.678Z,5.05
2023-04-03T07:31:44.706Z,5.02
2023-04-03T07:32:45.169Z,5.01
2023-04-03T07:33:44.644Z,5.04
2023-04-03T07:34:44.622Z,5.05
2023-04-03T07:35:44.721Z,5.07
2023-04-03T07:36:44.623Z,5.12
2023-04-03T07:37:44.606Z,5.08
2023-04-03T07:38:44.572Z,5.15
2023-04-03T07:39:44.553Z,5.18
2023-04-03T07:40:44.545Z,5.19
2023-04-03T07:41:44.565Z,5.25
2023-04-03T07:42:44.626Z,5.29
2023-04-03T07:43:44.524Z,5.34
2023-04-03T07:44:44.487Z,5.38
2023-04-03T07:45:44.511Z,5.41
2023-04-03T07:46:44.455Z,5.41
2023-04-03T07:47:44.499Z,5.41
2023-04-03T07:48:44.437Z,5.44
2023-04-03T07:49:44.417Z,5.47
2023-04-03T07:50:44.419Z,5.43
2023-04-03T07:51:44.406Z,5.41
2023-04-03T07:52:44.422Z,5.41
2023-04-03T07:53:44.368Z,5.40
2023-04-03T07:54:44.356Z,5.38
2023-04-03T07:55:44.365Z,5.40
2023-04-03T07:56:44.331Z,5.41
2023-04-03T07:57:44.332Z,5.44
2023-04-03T07:58:44.301Z,5.47
2023-04-03T07:59:44.285Z,5.46
2023-04-03T08:00:44.265Z,5.47
2023-04-03T08:01:44.273Z,5.47
2023-04-03T08:02:44.436Z,5.47
2023-04-03T08:03:44.378Z,5.47
2023-04-03T08:04:44.340Z,5.44
2023-04-03T08:05:44.252Z,5.47
2023-04-03T08:06:46.807Z,5.49
2023-04-03T08:07:44.202Z,5.47
2023-04-03T08:08:44.169Z,5.51
2023-04-03T08:09:44.196Z,5.54
2023-04-03T08:10:44.176Z,5.58
2023-04-03T08:11:44.164Z,5.59
2023-04-03T08:12:44.137Z,5.64
2023-04-03T08:13:44.107Z,5.67
2023-04-03T08:14:44.098Z,5.69
2023-04-03T08:15:44.097Z,5.72
2023-04-03T08:16:44.205Z,5.74
2023-04-03T08:17:44.095Z,5.77
2023-04-03T08:18:44.049Z,5.81
2023-04-03T08:19:44.032Z,5.83
2023-04-03T08:20:44.030Z,5.87
2023-04-03T08:21:43.993Z,5.87
2023-04-03T08:22:44.008Z,5.83
2023-04-03T08:23:43.983Z,5.88
2023-04-03T08:24:56.251Z,5.94
2023-04-03T08:25:44.939Z,5.98
2023-04-03T08:26:44.062Z,5.97
2023-04-03T08:27:43.947Z,5.97
2023-04-03T08:28:43.908Z,5.98
2023-04-03T08:29:43.890Z,5.97
2023-04-03T08:30:43.932Z,5.99
2023-04-03T08:31:43.883Z,6.02
2023-04-03T08:32:43.928Z,6.05
2023-04-03T08:33:43.879Z,6.06
2023-04-03T08:34:43.837Z,6.07
2023-04-03T08:35:44.110Z,6.06
2023-04-03T08:36:43.810Z,6.07
2023-04-03T08:37:43.780Z,6.05
2023-04-03T08:38:43.816Z,6.06
2023-04-03T08:39:43.762Z,6.12
2023-04-03T08:40:43.760Z,6.12
2023-04-03T08:41:43.734Z,6.09
2023-04-03T08:42:43.705Z,6.05
2023-04-03T08:43:43.729Z,5.98
2023-04-03T08:44:43.692Z,5.98
2023-04-03T08:45:43.711Z,6.01
2023-04-03T08:46:43.666Z,6.01
2023-04-03T08:47:43.718Z,6.02
2023-04-03T08:48:43.678Z,6.07
2023-04-03T08:49:43.667Z,6.16
2023-04-03T08:50:43.625Z,6.22
2023-04-03T08:51:43.595Z,6.26
2023-04-03T08:52:43.619Z,6.34
2023-04-03T08:53:43.590Z,6.39
2023-04-03T08:54:43.571Z,6.46
2023-04-03T08:55:43.579Z,6.52
2023-04-03T08:56:43.554Z,6.56
2023-04-03T08:57:43.638Z,6.56
2023-04-03T08:58:43.875Z,6.53
2023-04-03T08:59:43.499Z,6.46
2023-04-03T09:00:43.485Z,6.35
2023-04-03T09:01:43.503Z,6.26
2023-04-03T09:02:43.559Z,6.25
2023-04-03T09:03:43.526Z,6.22
2023-04-03T09:04:43.433Z,6.20
2023-04-03T09:05:43.444Z,6.25
2023-04-03T09:06:43.440Z,6.32
2023-04-03T09:07:43.411Z,6.43
2023-04-03T09:08:43.410Z,6.50
2023-04-03T09:09:43.404Z,6.57
2023-04-03T09:10:43.378Z,6.60
2023-04-03T09:11:43.645Z,6.64
2023-04-03T09:12:43.471Z,6.65
2023-04-03T09:13:43.766Z,6.67
2023-04-03T09:14:44.231Z,6.71
2023-04-03T09:15:43.368Z,6.74
2023-04-03T09:16:43.281Z,6.71
2023-04-03T09:17:43.425Z,6.74
2023-04-03T09:18:43.387Z,6.64
2023-04-03T09:19:43.552Z,6.62
2023-04-03T09:20:43.236Z,6.67
2023-04-03T09:21:43.351Z,6.68
2023-04-03T09:22:49.846Z,6.72
2023-04-03T09:23:44.299Z,6.72
2023-04-03T09:24:43.249Z,6.72
2023-04-03T09:25:43.244Z,6.72
2023-04-03T09:26:43.228Z,6.75
2023-04-03T09:27:43.485Z,6.78
2023-04-03T09:28:50.621Z,6.80
2023-04-03T09:29:44.619Z,6.85
2023-04-03T09:30:43.863Z,6.85
2023-04-03T09:31:43.297Z,6.87
2023-04-03T09:32:43.210Z,6.86
2023-04-03T09:33:43.152Z,6.90
2023-04-03T09:34:43.069Z,6.96
2023-04-03T09:35:48.147Z,6.89
2023-04-03T09:36:44.019Z,6.87
2023-04-03T09:37:43.009Z,6.78
2023-04-03T09:38:42.994Z,6.78
2023-04-03T09:39:42.989Z,6.83
2023-04-03T09:40:42.967Z,6.87
2023-04-03T09:41:43.039Z,6.87
2023-04-03T09:42:46.219Z,6.95
2023-04-03T09:43:42.921Z,6.93
2023-04-03T09:44:42.921Z,6.95
2023-04-03T09:45:42.926Z,6.95
2023-04-03T09:46:42.958Z,6.90
2023-04-03T09:47:42.956Z,6.87
2023-04-03T09:48:42.860Z,6.75
2023-04-03T09:49:42.869Z,6.80
2023-04-03T09:50:42.840Z,6.83
2023-04-03T09:51:42.833Z,6.85
2023-04-03T09:52:42.887Z,6.86
2023-04-03T09:53:42.823Z,6.85
2023-04-03T09:54:42.800Z,6.77
2023-04-03T09:55:42.782Z,6.77
2023-04-03T09:56:42.755Z,6.74
2023-04-03T09:57:42.759Z,6.74
2023-04-03T09:58:50.405Z,6.78
2023-04-03T09:59:43.738Z,6.83
2023-04-03T10:00:42.834Z,6.83
2023-04-03T10:01:42.701Z,6.87
2023-04-03T10:02:42.715Z,6.90
2023-04-03T10:03:42.670Z,6.89
2023-04-03T10:04:42.774Z,6.96
2023-04-03T10:05:42.699Z,7.08
2023-04-03T10:06:42.631Z,7.14
2023-04-03T10:07:44.684Z,7.18
2023-04-03T10:08:43.620Z,7.21
2023-04-03T10:09:42.585Z,7.25
2023-04-03T10:10:42.597Z,7.23
2023-04-03T10:11:42.560Z,7.29
2023-04-03T10:12:42.558Z,7.33
2023-04-03T10:13:50.776Z,7.32
2023-04-03T10:14:43.536Z,7.32
2023-04-03T10:15:42.534Z,7.39
2023-04-03T10:16:42.529Z,7.39
2023-04-03T10:17:42.512Z,7.41
2023-04-03T10:18:42.523Z,7.43
2023-04-03T10:19:42.476Z,7.43
2023-04-03T10:20:42.459Z,7.44
2023-04-03T10:21:42.423Z,7.43
2023-04-03T10:22:42.420Z,7.39
2023-04-03T10:23:42.407Z,7.39
2023-04-03T10:24:42.420Z,7.32
2023-04-03T10:25:42.394Z,7.33
2023-04-03T10:26:42.425Z,7.31
2023-04-03T10:27:42.365Z,7.31
2023-04-03T10:28:42.338Z,7.37
2023-04-03T10:29:42.348Z,7.32
2023-04-03T10:30:42.363Z,7.36
2023-04-03T10:31:42.361Z,7.32
2023-04-03T10:32:42.326Z,7.36
2023-04-03T10:33:42.273Z,7.46
2023-04-03T10:34:43.446Z,7.50
2023-04-03T10:35:42.268Z,7.56
2023-04-03T10:36:42.235Z,7.66
2023-04-03T10:37:42.218Z,7.72
2023-04-03T10:38:42.227Z,7.75
2023-04-03T10:39:42.193Z,7.83
2023-04-03T10:40:42.197Z,7.85
2023-04-03T10:41:42.165Z,7.85
2023-04-03T10:42:42.159Z,7.91
2023-04-03T10:43:42.139Z,7.96
2023-04-03T10:44:42.179Z,7.98
2023-04-03T10:45:42.147Z,7.88
2023-04-03T10:46:42.100Z,7.91
2023-04-03T10:47:42.094Z,7.96
2023-04-03T10:48:42.078Z,8.05
2023-04-03T10:49:44.606Z,8.11
2023-04-03T10:50:43.068Z,8.13
2023-04-03T10:51:42.042Z,8.17
2023-04-03T10:52:42.018Z,8.21
2023-04-03T10:53:42.006Z,8.24
2023-04-03T10:54:42.009Z,8.27
2023-04-03T10:55:41.998Z,8.28
2023-04-03T10:56:41.972Z,8.23
2023-04-03T10:57:42.004Z,8.20
2023-04-03T10:58:41.940Z,8.21
2023-04-03T10:59:41.929Z,8.21
2023-04-03T11:00:41.912Z,8.24
2023-04-03T11:01:42.003Z,8.27
2023-04-03T11:02:41.959Z,8.28
2023-04-03T11:03:41.993Z,8.27
2023-04-03T11:04:41.869Z,8.27
2023-04-03T11:05:41.845Z,8.27
2023-04-03T11:06:41.853Z,8.31
2023-04-03T11:07:41.812Z,8.32
2023-04-03T11:08:41.832Z,8.31
2023-04-03T11:09:41.790Z,8.38
2023-04-03T11:10:41.771Z,8.35
2023-04-03T11:11:41.795Z,8.32
2023-04-03T11:12:41.755Z,8.38
2023-04-03T11:13:41.729Z,8.39
2023-04-03T11:14:41.722Z,8.44
2023-04-03T11:15:41.736Z,8.50
2023-04-03T11:16:50.896Z,8.59
2023-04-03T11:17:42.688Z,8.53
2023-04-03T11:18:41.674Z,8.57
2023-04-03T11:19:41.649Z,8.59
2023-04-03T11:20:41.614Z,8.61
2023-04-03T11:21:41.642Z,8.71
2023-04-03T11:22:41.611Z,8.81
2023-04-03T11:23:49.548Z,8.89
2023-04-03T11:24:42.566Z,8.92
2023-04-03T11:25:42.980Z,8.90
2023-04-03T11:26:41.570Z,8.90
2023-04-03T11:27:41.575Z,8.82
2023-04-03T11:28:41.535Z,8.78
2023-04-03T11:29:41.560Z,8.78
2023-04-03T11:30:41.505Z,8.72
2023-04-03T11:31:41.570Z,8.74
2023-04-03T11:32:41.561Z,8.74
2023-04-03T11:33:41.452Z,8.74
2023-04-03T11:34:41.463Z,8.71
2023-04-03T11:35:41.506Z,8.77
2023-04-03T11:36:41.476Z,8.77
2023-04-03T11:37:41.402Z,8.82
2023-04-03T11:38:41.393Z,8.86
2023-04-03T11:39:41.421Z,8.95
2023-04-03T11:40:41.369Z,9.00
2023-04-03T11:41:41.381Z,9.08
2023-04-03T11:42:41.429Z,9.09
2023-04-03T11:43:41.326Z,9.09
2023-04-03T11:44:41.321Z,9.11
2023-04-03T11:45:41.648Z,9.09
2023-04-03T11:46:41.340Z,9.13
2023-04-03T11:47:41.312Z,9.12
2023-04-03T11:48:41.251Z,9.15
2023-04-03T11:49:41.239Z,9.08
2023-04-03T11:50:41.248Z,9.02
2023-04-03T11:51:41.210Z,8.96
2023-04-03T11:52:44.033Z,8.95
2023-04-03T11:53:41.295Z,8.97
2023-04-03T11:54:44.780Z,8.97
2023-04-03T11:55:41.163Z,8.99
2023-04-03T11:56:41.143Z,9.03
2023-04-03T11:57:41.148Z,9.05
2023-04-03T11:58:41.120Z,9.11
2023-04-03T11:59:41.092Z,9.13
2023-04-03T12:00:41.089Z,9.13
2023-04-03T12:01:41.244Z,9.15
2023-04-03T12:02:53.328Z,9.16
2023-04-03T12:03:42.181Z,9.24
2023-04-03T12:04:41.100Z,9.33
2023-04-03T12:05:41.079Z,9.42
2023-04-03T12:06:41.075Z,9.47
2023-04-03T12:07:41.107Z,9.51
2023-04-03T12:08:40.973Z,9.62
2023-04-03T12:09:40.978Z,9.66
2023-04-03T12:10:40.963Z,9.70
2023-04-03T12:11:40.942Z,9.73
2023-04-03T12:12:40.941Z,9.77
2023-04-03T12:13:40.908Z,9.84
2023-04-03T12:14:40.901Z,9.88
2023-04-03T12:15:40.868Z,9.92
2023-04-03T12:16:40.894Z,10.00
2023-04-03T12:17:40.863Z,10.06
2023-04-03T12:18:40.862Z,10.13
2023-04-03T12:19:42.897Z,10.20
2023-04-03T12:20:40.820Z,10.25
2023-04-03T12:21:40.791Z,10.25
2023-04-03T12:22:40.788Z,10.30
2023-04-03T12:23:40.796Z,10.18
2023-04-03T12:24:40.786Z,10.20
2023-04-03T12:25:40.736Z,10.30
2023-04-03T12:26:47.972Z,10.36
2023-04-03T12:27:41.720Z,10.41
2023-04-03T12:28:40.742Z,10.36
2023-04-03T12:29:42.189Z,10.21
2023-04-03T12:30:40.702Z,10.13
2023-04-03T12:31:40.668Z,10.13
2023-04-03T12:32:40.709Z,10.03
2023-04-03T12:33:40.649Z,9.99
2023-04-03T12:34:40.625Z,9.87
2023-04-03T12:35:40.920Z,9.84
2023-04-03T12:36:40.607Z,9.85
2023-04-03T12:37:40.595Z,9.94
2023-04-03T12:38:40.634Z,10.07
2023-04-03T12:39:40.577Z,10.12
2023-04-03T12:40:40.567Z,10.20
2023-04-03T12:41:40.525Z,10.25
2023-04-03T12:42:40.529Z,10.33
2023-04-03T12:43:40.525Z,10.23
2023-04-03T12:44:40.495Z,10.20
2023-04-03T12:45:40.737Z,10.17
2023-04-03T12:46:40.552Z,10.12
2023-04-03T12:47:40.466Z,10.10
2023-04-03T12:48:40.458Z,10.20
2023-04-03T12:49:40.428Z,10.28
2023-04-03T12:50:40.417Z,10.31
2023-04-03T12:51:40.413Z,10.27
2023-04-03T12:52:40.395Z,10.31
2023-04-03T12:53:40.426Z,10.34
2023-04-03T12:54:40.384Z,10.42
2023-04-03T12:55:40.505Z,10.34
2023-04-03T12:56:40.315Z,10.31
2023-04-03T12:57:40.334Z,10.24
2023-04-03T12:58:40.320Z,10.20
2023-04-03T12:59:40.314Z,10.28
2023-04-03T13:00:40.358Z,10.28
2023-04-03T13:01:40.315Z,10.33
2023-04-03T13:02:40.287Z,10.43
2023-04-03T13:03:40.385Z,10.53
2023-04-03T13:04:40.257Z,10.64
2023-04-03T13:05:40.475Z,10.72
2023-04-03T13:06:40.227Z,10.80
2023-04-03T13:07:40.208Z,10.95
2023-04-03T13:08:40.162Z,11.01
2023-04-03T13:09:40.157Z,11.07
2023-04-03T13:10:40.161Z,11.13
2023-04-03T13:11:40.134Z,11.18
2023-04-03T13:12:40.241Z,11.16
2023-04-03T13:13:40.140Z,11.01
2023-04-03T13:14:40.114Z,10.76
2023-04-03T13:15:40.251Z,10.48
2023-04-03T13:16:40.113Z,10.46